createdAt,value
2022-12-29T00:00:37.754Z,9.20
2022-12-29T00:03:05.393Z,9.20
2022-12-29T00:05:33.510Z,9.20
2022-12-29T00:08:07.518Z,9.30
2022-12-29T00:10:37.418Z,9.30
2022-12-29T00:13:23.089Z,9.40
2022-12-29T00:15:59.146Z,9.40
2022-12-29T00:18:39.387Z,9.40
2022-12-29T00:21:33.310Z,9.40
2022-12-29T00:24:23.448Z,9.40
2022-12-29T00:27:23.196Z,9.40
2022-12-29T00:33:48.895Z,9.30
2022-12-29T00:36:30.384Z,9.30
2022-12-29T00:39:25.465Z,9.20
2022-12-29T00:42:11.517Z,9.20
2022-12-29T00:44:40.195Z,9.10
2022-12-29T00:47:42.152Z,9.00
2022-12-29T00:50:26.467Z,9.00
2022-12-29T00:52:59.807Z,9.00
2022-12-29T00:55:38.750Z,8.90
2022-12-29T00:58:35.178Z,8.90
2022-12-29T01:01:46.930Z,8.90
2022-12-29T01:04:31.505Z,8.90
2022-12-29T01:07:14.442Z,8.90
2022-12-29T01:10:02.588Z,8.90
2022-12-29T01:12:46.562Z,8.90
2022-12-29T01:15:17.692Z,8.90
2022-12-29T01:18:11.721Z,8.90
2022-12-29T01:20:44.230Z,8.90
2022-12-29T01:23:11.409Z,9.00
2022-12-29T01:25:38.797Z,9.00
2022-12-29T01:28:05.976Z,8.90
2022-12-29T01:30:33.969Z,8.90
2022-12-29T01:33:01.525Z,8.90
2022-12-29T01:35:38.919Z,8.90
2022-12-29T01:38:06.025Z,9.00
2022-12-29T01:40:38.011Z,9.00
2022-12-29T01:43:12.777Z,9.00
2022-12-29T01:45:53.745Z,8.90
2022-12-29T01:49:25.940Z,8.90
2022-12-29T01:52:01.269Z,8.80
2022-12-29T01:54:29.991Z,8.80
2022-12-29T01:56:59.968Z,8.70
2022-12-29T01:59:45.661Z,8.70
2022-12-29T02:02:26.831Z,8.60
2022-12-29T02:05:04.156Z,8.60
2022-12-29T02:07:50.226Z,8.60
2022-12-29T02:13:28.609Z,8.60
2022-12-29T02:16:08.496Z,8.50
2022-12-29T02:19:22.189Z,8.50
2022-12-29T02:22:09.956Z,8.50
2022-12-29T02:25:07.600Z,8.50
2022-12-29T02:27:54.804Z,8.50
2022-12-29T02:30:34.211Z,8.50
2022-12-29T02:33:15.695Z,8.40
2022-12-29T02:36:14.989Z,8.40
2022-12-29T02:39:11.372Z,8.50
2022-12-29T02:42:06.594Z,8.60
2022-12-29T02:48:54.768Z,8.60
2022-12-29T02:51:56.856Z,8.80
2022-12-29T02:54:51.484Z,8.80
2022-12-29T02:57:26.859Z,8.80
2022-12-29T03:00:11.084Z,8.90
2022-12-29T03:02:44.483Z,8.90
2022-12-29T03:05:27.979Z,8.90
2022-12-29T03:08:51.273Z,8.90
2022-12-29T03:11:43.809Z,8.80
2022-12-29T03:14:52.740Z,8.80
2022-12-29T03:17:37.696Z,8.80
2022-12-29T03:20:41.942Z,8.80
2022-12-29T03:23:09.457Z,8.90
2022-12-29T03:25:38.737Z,9.10
2022-12-29T03:28:19.250Z,9.20
2022-12-29T03:30:57.190Z,9.20
2022-12-29T03:33:28.247Z,9.40
2022-12-29T03:36:15.013Z,9.50
2022-12-29T03:39:13.323Z,9.50
2022-12-29T03:41:51.661Z,9.60
2022-12-29T03:44:23.244Z,9.50
2022-12-29T03:46:55.018Z,9.60
2022-12-29T03:49:28.849Z,9.60
2022-12-29T03:52:02.053Z,9.60
2022-12-29T03:55:06.788Z,9.60
2022-12-29T03:57:39.369Z,9.60
2022-12-29T04:00:22.580Z,9.50
2022-12-29T04:02:51.302Z,9.60
2022-12-29T04:05:23.360Z,9.60
2022-12-29T04:08:31.907Z,9.60
2022-12-29T04:11:04.261Z,9.60
2022-12-29T04:13:34.939Z,9.60
2022-12-29T04:16:02.877Z,9.70
2022-12-29T04:18:37.716Z,9.70
2022-12-29T04:21:07.601Z,9.70
2022-12-29T04:23:39.238Z,9.70
2022-12-29T04:26:10.100Z,9.60
2022-12-29T04:28:50.471Z,9.60
2022-12-29T04:31:40.633Z,9.50
2022-12-29T04:34:08.375Z,9.40
2022-12-29T04:36:40.022Z,9.30
2022-12-29T04:39:19.685Z,9.30
2022-12-29T04:41:50.210Z,9.30
2022-12-29T04:44:23.912Z,9.30
2022-12-29T04:46:53.706Z,9.30
2022-12-29T04:49:44.157Z,9.30
2022-12-29T04:52:46.747Z,9.30
2022-12-29T04:55:20.921Z,9.30
2022-12-29T04:57:49.659Z,9.40
2022-12-29T05:00:19.905Z,9.40
2022-12-29T05:02:48.286Z,9.40
2022-12-29T05:05:18.543Z,9.40
2022-12-29T05:07:49.733Z,9.40
2022-12-29T05:10:20.402Z,9.30
2022-12-29T05:12:52.405Z,9.40
2022-12-29T05:15:20.015Z,9.40
2022-12-29T05:18:01.373Z,9.30
2022-12-29T05:20:32.509Z,9.30
2022-12-29T05:23:12.121Z,9.30
2022-12-29T05:26:07.433Z,9.20
2022-12-29T05:28:58.283Z,9.10
2022-12-29T05:31:28.889Z,9.10
2022-12-29T05:34:13.712Z,9.10
2022-12-29T05:36:49.738Z,9.10
2022-12-29T05:39:21.118Z,9.10
2022-12-29T05:42:12.267Z,9.10
2022-12-29T05:45:08.296Z,9.10
2022-12-29T05:47:52.984Z,9.10
2022-12-29T05:50:43.082Z,9.20
2022-12-29T05:53:15.854Z,9.20
2022-12-29T05:55:53.720Z,9.30
2022-12-29T05:58:25.628Z,9.40
2022-12-29T06:00:55.455Z,9.40
2022-12-29T06:03:25.950Z,9.50
2022-12-29T06:05:54.700Z,9.40
2022-12-29T06:08:21.891Z,9.40
2022-12-29T06:10:49.877Z,9.40
2022-12-29T06:13:19.636Z,9.40
2022-12-29T06:15:55.039Z,9.40
2022-12-29T06:18:22.753Z,9.40
2022-12-29T06:21:02.758Z,9.30
2022-12-29T06:23:30.216Z,9.20
2022-12-29T06:25:57.730Z,9.20
2022-12-29T06:28:27.650Z,9.10
2022-12-29T06:31:13.890Z,9.00
2022-12-29T06:34:41.825Z,9.00
2022-12-29T06:40:49.314Z,8.80
2022-12-29T06:46:55.878Z,8.70
2022-12-29T06:49:23.428Z,8.60
2022-12-29T06:51:53.627Z,8.60
2022-12-29T06:54:50.422Z,8.50
2022-12-29T06:57:22.193Z,8.50
2022-12-29T07:00:26.834Z,8.50
2022-12-29T07:02:59.476Z,8.50
2022-12-29T07:06:30.998Z,8.40
2022-12-29T07:12:34.798Z,8.40
2022-12-29T07:15:22.055Z,8.40
2022-12-29T07:18:27.888Z,8.40
2022-12-29T07:21:53.324Z,8.30
2022-12-29T07:28:23.622Z,8.20
2022-12-29T07:31:13.070Z,8.10
2022-12-29T07:33:52.778Z,8.10
2022-12-29T07:42:05.204Z,8.10
2022-12-29T07:46:03.359Z,8.00
2022-12-29T07:48:53.098Z,8.00
2022-12-29T07:51:38.942Z,8.10
2022-12-29T08:07:58.797Z,8.00
2022-12-29T08:12:38.476Z,8.00
2022-12-29T08:15:41.806Z,8.00
2022-12-29T08:30:14.768Z,7.90
2022-12-29T09:49:53.065Z,8.40
2022-12-29T09:52:26.719Z,8.50
2022-12-29T09:55:16.898Z,8.50
2022-12-29T09:57:47.305Z,8.60
2022-12-29T10:00:19.793Z,8.60
2022-12-29T10:03:17.075Z,8.60
2022-12-29T10:06:25.007Z,8.70
2022-12-29T10:09:22.876Z,8.80
2022-12-29T10:15:44.156Z,9.10
2022-12-29T10:23:23.500Z,9.30
2022-12-29T10:26:19.547Z,9.20
2022-12-29T10:29:06.775Z,9.20
2022-12-29T10:31:42.836Z,9.10
2022-12-29T10:34:34.855Z,9.00
2022-12-29T10:37:34.102Z,9.00
2022-12-29T10:40:35.163Z,9.00
2022-12-29T10:43:12.520Z,9.00
2022-12-29T10:45:43.297Z,9.00
2022-12-29T10:48:28.645Z,9.00
2022-12-29T10:51:02.197Z,9.00
2022-12-29T10:53:53.132Z,9.00
2022-12-29T10:56:37.524Z,9.00
2022-12-29T11:03:05.633Z,9.10
2022-12-29T11:05:39.968Z,9.10
2022-12-29T11:08:29.751Z,9.10
2022-12-29T11:11:04.986Z,9.10
2022-12-29T11:14:11.747Z,9.00
2022-12-29T11:22:32.034Z,9.00
2022-12-29T11:25:50.377Z,9.00
2022-12-29T11:28:32.428Z,9.10
2022-12-29T11:31:09.132Z,9.10
2022-12-29T11:36:34.563Z,9.20
2022-12-29T12:01:07.503Z,9.30
2022-12-29T12:03:37.107Z,9.40
2022-12-29T12:11:03.612Z,9.30
2022-12-29T12:17:29.869Z,9.10
2022-12-29T12:20:15.837Z,9.10
2022-12-29T12:22:52.495Z,9.10
2022-12-29T12:25:29.606Z,9.10
2022-12-29T12:28:28.432Z,9.00
2022-12-29T12:31:07.927Z,9.10
2022-12-29T12:34:03.841Z,9.10
2022-12-29T12:36:47.087Z,9.10
2022-12-29T12:40:23.914Z,9.10
2022-12-29T12:43:10.847Z,9.00
2022-12-29T12:46:20.939Z,9.10
2022-12-29T12:49:13.219Z,9.10
2022-12-29T12:52:18.715Z,8.90
2022-12-29T12:55:18.393Z,8.90
2022-12-29T12:58:00.504Z,9.00
2022-12-29T13:00:31.472Z,9.00
2022-12-29T13:06:42.429Z,9.10
2022-12-29T13:09:46.001Z,9.30
2022-12-29T13:13:08.219Z,9.40
2022-12-29T13:15:59.999Z,9.40
2022-12-29T13:19:10.958Z,9.50
2022-12-29T13:22:26.050Z,9.40
2022-12-29T13:25:42.113Z,9.40
2022-12-29T13:28:19.094Z,9.40
2022-12-29T13:31:18.030Z,9.40
2022-12-29T13:34:41.512Z,9.50
2022-12-29T13:37:49.727Z,9.60
2022-12-29T13:40:33.535Z,9.70
2022-12-29T13:43:37.391Z,9.70
2022-12-29T13:46:12.883Z,9.80
2022-12-29T13:49:07.726Z,9.80
2022-12-29T13:51:40.151Z,9.90
2022-12-29T13:54:47.888Z,9.90
2022-12-29T13:58:04.399Z,9.70
2022-12-29T14:03:49.652Z,9.40
2022-12-29T14:06:39.316Z,9.30
2022-12-29T14:09:45.727Z,9.30
2022-12-29T14:12:42.831Z,9.30
2022-12-29T14:18:06.216Z,9.30
2022-12-29T14:20:42.713Z,9.30
2022-12-29T14:23:14.157Z,9.30
2022-12-29T14:25:55.052Z,9.30
2022-12-29T14:29:15.055Z,9.30
2022-12-29T14:31:55.346Z,9.10
2022-12-29T14:38:31.950Z,8.90
2022-12-29T14:45:09.424Z,8.70
2022-12-29T14:48:08.034Z,8.80
2022-12-29T14:51:10.778Z,8.80
2022-12-29T14:57:15.651Z,8.70
2022-12-29T15:00:51.349Z,8.80
2022-12-29T15:03:57.344Z,8.80
2022-12-29T15:06:33.356Z,8.70
2022-12-29T15:09:32.728Z,8.70
2022-12-29T15:13:10.010Z,8.70
2022-12-29T15:15:52.010Z,8.60
2022-12-29T15:18:29.942Z,8.60
2022-12-29T15:21:34.224Z,8.60
2022-12-29T15:24:25.264Z,8.60
2022-12-29T15:27:10.660Z,8.60
2022-12-29T15:30:35.885Z,8.50
2022-12-29T15:33:25.522Z,8.50
2022-12-29T15:39:19.275Z,8.40
2022-12-29T15:42:48.446Z,8.30
2022-12-29T15:45:27.515Z,8.30
2022-12-29T15:49:04.433Z,8.30
2022-12-29T15:52:20.979Z,8.20
2022-12-29T16:05:22.578Z,8.20
2022-12-29T16:07:58.522Z,8.20
2022-12-29T16:11:00.851Z,8.10
2022-12-29T16:13:46.879Z,8.00
2022-12-29T16:22:35.080Z,7.90
2022-12-29T16:25:33.819Z,7.90
2022-12-29T16:28:04.930Z,7.80
2022-12-29T16:30:51.738Z,7.80
2022-12-29T16:33:41.782Z,7.80
2022-12-29T16:36:51.532Z,7.80
2022-12-29T16:39:32.045Z,7.90
2022-12-29T16:42:08.691Z,8.00
2022-12-29T16:44:36.875Z,8.10
2022-12-29T16:47:37.671Z,8.10
2022-12-29T16:50:17.378Z,8.10
2022-12-29T16:53:00.645Z,8.10
2022-12-29T16:55:38.398Z,8.00
2022-12-29T16:58:07.086Z,7.90
2022-12-29T17:00:36.704Z,7.80
2022-12-29T17:03:08.119Z,7.70
2022-12-29T17:05:35.542Z,7.60
2022-12-29T17:08:28.860Z,7.60
2022-12-29T17:11:20.397Z,7.60
2022-12-29T17:13:58.137Z,7.50
2022-12-29T17:16:27.495Z,7.50
2022-12-29T17:19:10.643Z,7.50
2022-12-29T17:22:01.693Z,7.40
2022-12-29T17:24:32.328Z,7.40
2022-12-29T17:27:02.678Z,7.40
2022-12-29T17:29:46.354Z,7.30
2022-12-29T17:32:23.985Z,7.30
2022-12-29T17:35:10.352Z,7.20
2022-12-29T17:37:40.102Z,7.20
2022-12-29T17:40:10.637Z,7.20
2022-12-29T17:45:32.383Z,7.10
2022-12-29T18:15:42.772Z,6.80
2022-12-29T18:18:02.538Z,6.80
2022-12-29T18:21:37.379Z,6.80
2022-12-29T18:26:23.904Z,6.70
2022-12-29T18:33:28.272Z,6.70
2022-12-29T18:38:57.336Z,6.60
2022-12-29T18:49:19.395Z,6.60
2022-12-29T19:21:04.961Z,6.50
2022-12-29T19:25:04.776Z,6.50
2022-12-29T19:37:44.824Z,6.40
2022-12-29T20:04:43.737Z,6.30
2022-12-29T20:08:57.961Z,6.30
2022-12-29T20:16:02.926Z,6.30
2022-12-29T21:25:41.776Z,5.80
2022-12-29T21:31:38.381Z,5.70
2022-12-29T21:34:08.905Z,5.80
2022-12-29T21:36:54.227Z,5.70
2022-12-29T21:39:25.780Z,5.70
2022-12-29T21:42:07.601Z,5.70
2022-12-29T21:45:00.705Z,5.80
2022-12-29T21:47:49.362Z,5.80
2022-12-29T21:50:30.941Z,5.80
2022-12-29T21:53:09.260Z,5.80
2022-12-29T21:56:38.159Z,5.80
2022-12-29T22:02:48.114Z,5.80
2022-12-29T22:05:43.238Z,5.80
2022-12-29T22:08:30.636Z,5.70
2022-12-29T22:11:26.609Z,5.70
2022-12-29T22:14:01.917Z,5.70
2022-12-29T22:16:38.065Z,5.70
2022-12-29T22:20:07.520Z,5.70
2022-12-29T22:22:58.311Z,5.60
2022-12-29T22:26:12.027Z,5.60
2022-12-29T22:29:37.063Z,5.60
2022-12-29T22:32:42.199Z,5.60
2022-12-29T22:35:23.221Z,5.50
2022-12-29T22:37:54.833Z,5.50
2022-12-29T22:40:31.134Z,5.50
2022-12-29T22:43:21.988Z,5.50
2022-12-29T22:46:06.348Z,5.50
2022-12-29T22:48:40.142Z,5.50
2022-12-29T22:54:02.887Z,5.50
2022-12-29T22:56:51.428Z,5.60
2022-12-29T22:59:36.649Z,5.50
2022-12-29T23:02:33.903Z,5.50
2022-12-29T23:05:09.259Z,5.40
2022-12-29T23:07:50.827Z,5.40
2022-12-29T23:10:25.553Z,5.40
2022-12-29T23:16:18.759Z,5.40
2022-12-29T23:18:51.753Z,5.40
2022-12-29T23:21:45.676Z,5.30
2022-12-29T23:24:20.086Z,5.30
2022-12-29T23:27:08.521Z,5.30
2022-12-29T23:29:40.168Z,5.20
2022-12-29T23:32:20.947Z,5.20
2022-12-29T23:35:21.942Z,5.20
2022-12-29T23:38:05.370Z,5.20
2022-12-29T23:40:49.805Z,5.20
2022-12-29T23:43:26.122Z,5.20
2022-12-29T23:46:28.688Z,5.10
2022-12-29T23:49:06.687Z,5.20
2022-12-29T23:54:34.087Z,5.10
2022-12-29T23:57:40.762Z,5.10
